Go Pro

Nutrien (NTR) Institutional Ownership

Nutrien logo
$79.53 -1.20 (-1.49%)
As of 09/4/2026 03:58 PM Eastern

Institutional Ownership Changes (13F Filings) for Nutrien (NYSE:NTR)

Current
Institutional Ownership
Percentage
63.10%
Number of
Institutional Buyers
(last 12 months)
390
Total
Institutional Inflows
(last 12 months)
$6.57B
Number of
Institutional Sellers
(last 12 months)
227
Total
Institutional Outflows
(last 12 months)
$1.83B
Get NTR Insider Trade Alerts

Want to know when executives and insiders are buying or selling Nutrien stock? Sign up for InsiderTrades.com's daily newsletter to get the latest insider transactions delivered to your inbox daily.

SMS is currently available in Australia, Belgium, Canada, France, Germany, Ireland, Italy, New Zealand, the Netherlands, Singapore, South Africa, Spain, Switzerland, the United Kingdom, and the United States. By entering your phone number and clicking the sign-up button, you agree to receive periodic text messages from MarketBeat at the phone number you submitted, including texts that may be sent using an automatic telephone dialing system. Message and data rates may apply. Message frequency will vary. Messages will consist of stock alerts, news stories, and partner advertisements/offers. Consent is not a condition of the purchase of any goods or services. Text HELP for help/customer support. Unsubscribe at any time by replying "STOP" to any text message that you receive from MarketBeat or by visiting our mailing preferences page. Read our full terms of service and privacy policy.
Skip Chart & View Institutional Buying and Selling Data

NTR Institutional Buying and Selling by Quarter

Nutrien Major Shareholders & Ownership History

Reporting DateMajor Shareholder NameShares HeldMarket Value% of PortfolioQuarterly Change in SharesOwnership in CompanyDetails
9/2/2026 Brown Lisle Cummings Inc.8,142$513K0.1%+22.7%0.002%
8/27/2026 Corient Private Wealth LP32,606$2.05M0.0%-5.8%0.007%
8/26/2026 Amundi2,355,146$148.25M0.0%-4.3%0.492%
8/26/2026 HighTower Advisors LLC13,608$857K0.0%-14.2%0.003%
8/23/2026 Ameritas Advisory Services LLC1,326$83K0.0%N/A0.000%
8/23/2026 HB Wealth Management LLC4,282$270K0.0%-4.4%0.001%
8/22/2026 Munich Reinsurance Co Stock Corp in Munich34,621$2.18M0.1%N/A0.007%
8/22/2026 Syon Capital LLC3,609$227K0.0%N/A0.001%
8/22/2026 TD Waterhouse Canada Inc.5,518,435$351.15M0.9%+2.1%1.154%
8/22/2026 Concurrent Investment Advisors LLC3,649$230K0.0%-11.6%0.001%
8/21/2026 Ewing Morris & Co. Investment Partners Ltd.4,420$281K0.1%+54.0%0.001%
8/21/2026 Nykredit A S142,750$8.98M0.0%N/A0.030%
8/21/2026 Pacifica Partners Inc.33,000$2.13M0.6%-0.6%0.007%
8/21/2026 Investors Research Corp7,349$463K0.1%-4.8%0.002%
8/20/2026 Mufg Securities Canada LTD.680,109$42.78M1.1%-4.8%0.142%
8/20/2026 Addenda Capital Inc.112,460$7.08M0.2%+6.2%0.024%
8/20/2026 Headlands Technologies LLC6,122$385K0.0%N/A0.001%
8/20/2026 Quantitative Investment Management LLC49,476$3.11M0.3%N/A0.010%
8/20/2026 Moore Capital Management LP136,106$8.57M0.1%N/A0.028%
8/20/2026 Benjamin Edwards Inc.4,757$300K0.0%+13.5%0.001%
8/20/2026 Northwestern Mutual Wealth Management Co.10,492$660K0.0%-26.8%0.002%
8/20/2026 Greenwood Capital Associates LLC14,657$923K0.1%+19.3%0.003%
8/19/2026 Royal London Asset Management Ltd.48,178$3.03M0.0%-5.5%0.010%
8/19/2026 Van ECK Associates Corp3,360,919$211.57M0.1%+44.8%0.703%
8/19/2026 Hsbc Holdings PLC76,254$4.82M0.0%N/A0.016%
8/19/2026 Wellington Management Group LLP10,389,040$654.08M0.1%N/A2.172%
8/19/2026 Fox Hill Wealth Management4,691$295K0.1%N/A0.001%
8/19/2026 Kingsview Wealth Management LLC16,247$1.02M0.0%N/A0.003%
8/18/2026 Comprehensive Money Management Services LLC4,610$290K0.2%N/A0.001%
8/18/2026 United Capital Financial Advisors LLC8,437$531K0.0%N/A0.002%
8/18/2026 Ruggaard & Associates LLC5,255$331K0.1%N/A0.001%
8/18/2026 Equitable Holdings Inc.4,800$302K0.0%N/A0.001%
8/18/2026 Pacific Heights Asset Management LLC400,000$25.18M0.8%N/A0.084%
8/18/2026 Public Employees Retirement System of Ohio108,471$6.82M0.0%N/A0.023%
8/17/2026 Parvin Asset Management LLC6,505$409K0.3%N/A0.001%
8/17/2026 Corient Private Wealth LP146,785$2.30M0.0%N/A0.031%
8/17/2026 Bank of America Corp DE2,507,017$157.82M0.0%N/A0.524%
8/15/2026 Caisse de depot et placement du Quebec2,387,942$150.39M0.2%N/A0.499%
8/15/2026 Man Group plc105,187$6.62M0.0%N/A0.022%
8/15/2026 Polar Asset Management Partners Inc.35,205$2.21M0.0%N/A0.007%
Porter flew 3,300 miles to investigate this system (Ad)

Porter Stansberry flew the Porter and Co. team 3,300 miles to Dublin to investigate a 17-year investing experiment called Project Prophet - and documented everything on film. Rooted in the laws of physics, this quantitative approach challenges conventional wealth-building wisdom. With 17 years of verified data behind it, Porter calls it unlike anything he has seen in nearly 30 years in the business.tc pixel

Watch the full investigation and decide for yourself
8/15/2026 Jupiter Topco LLC426,256$26.82M0.0%N/A0.089%
8/14/2026 Hsbc Holdings PLC76,254$4.82M0.0%N/A0.016%
8/14/2026 Ancora Advisors LLC1,118$70K0.0%N/A0.000%
8/14/2026 PDT Partners LLC27,422$1.73M0.1%N/A0.006%
8/14/2026 Canada Pension Plan Investment Board5,709,156$359.32M0.2%N/A1.194%
8/14/2026 Legal & General Group Plc2,534,176$159.60M0.0%N/A0.530%
8/14/2026 The Manufacturers Life Insurance Company5,966,277$375.18M0.3%N/A1.247%
8/14/2026 Van Hulzen Asset Management LLC3,399$214K0.0%N/A0.001%
8/14/2026 Manning & Napier Advisors LLC35,339$2.23M0.0%N/A0.007%
8/13/2026 OMERS ADMINISTRATION Corp265,475$16.72M0.1%N/A0.055%
8/13/2026 Osmosis Investment Management UK Ltd82,321$5.18M0.2%N/A0.017%
8/13/2026 Sanctuary Advisors LLC40,407$2.54M0.0%N/A0.008%
8/13/2026 Clal Insurance Enterprises Holdings Ltd2,175,282$138.13M0.6%N/A0.455%
8/13/2026 Connor Clark & Lunn Investment Management Ltd.440,835$27.72M0.1%N/A0.092%
8/13/2026 First Nebraska Trust Co12,506$787K0.1%N/A0.003%
8/13/2026 Bank of Nova Scotia1,650,527$103.98M0.2%N/A0.345%
8/12/2026 Northwestern Mutual Wealth Management Co.10,492$660K0.0%N/A0.002%
8/12/2026 Cadence Wealth Management LLC18,437$1.16M0.5%N/A0.004%
8/12/2026 X Square Capital LLC4,250$268K0.1%N/A0.001%
8/12/2026 De Lisle Partners LLP22,000$1.39M0.2%N/A0.005%
8/12/2026 Westpac Banking Corp1,545$97K0.0%N/A0.000%
8/12/2026 Sumitomo Life Insurance Co.28,700$1.81M0.0%N/A0.006%
8/12/2026 Korea Investment CORP264,260$16.64M0.0%N/A0.055%
8/12/2026 Ieq Capital LLC10,173$640K0.0%N/A0.002%
8/12/2026 Callan Family Office LLC4,289$270K0.0%N/A0.001%
8/12/2026 Fund Advisors of America Inc FL3,355$211K0.2%N/A0.001%
8/11/2026 Allworth Financial LP833$52K0.0%N/A0.000%
8/11/2026 NFJ Investment Group LLC530,000$33.67M1.1%N/A0.111%
8/11/2026 Tejara Capital Ltd16,500$1.04M0.4%N/A0.003%
8/11/2026 PCM Encore LLC10,096$636K0.1%N/A0.002%
8/11/2026 Vise Technologies Inc.12,455$784K0.0%N/A0.003%
8/10/2026 Tocqueville Asset Management L.P.171,072$10.77M0.1%N/A0.036%
8/10/2026 Tacita Capital Inc4,244$267K0.1%N/A0.001%
8/10/2026 BOK Financial Private Wealth Inc.801$51K0.0%N/A0.000%
8/10/2026 Danske Bank A S851$53K0.0%N/A0.000%
8/8/2026 Foster & Motley Inc.5,426$342K0.0%N/A0.001%
8/8/2026 Four Tree Island Advisory LLC10,928$688K0.2%N/A0.002%
8/8/2026 Alpine Woods Capital Investors LLC5,875$370K0.1%N/A0.001%
8/7/2026 K.J. Harrison & Partners Inc75,327$4.74M0.7%N/A0.016%
8/7/2026 Grandfield & Dodd LLC30,960$1.95M0.1%N/A0.006%
8/7/2026 BlackRock Inc.3,509,808$220.94M0.0%N/A0.734%
8/7/2026 Deutsche Bank AG9,352,182$588.72M0.2%N/A1.955%
8/7/2026 Hikari Power Ltd150,000$9.44M1.1%N/A0.031%
8/7/2026 AMG National Trust Bank7,390$465K0.0%N/A0.002%
8/7/2026 Old West Investment Management LLC259,047$16.31M1.7%N/A0.054%
8/6/2026 Gould Asset Management LLC CA3,933$248K0.0%N/A0.001%
8/6/2026 Global Retirement Partners LLC474$30K0.0%N/A0.000%
8/6/2026 Alberta Investment Management Corp639,061$40.22M0.2%N/A0.134%
8/6/2026 CORDA Investment Management LLC.527,543$33.21M2.0%N/A0.110%
8/6/2026 Bank of New York Mellon Corp1,379,599$86.85M0.0%N/A0.288%
Iran War Shock: What I Was Told In That Private Meeting (Ad)

You’re Being LIED To About The Iran War Forget EVERYTHING you’ve heard about the Iran war. Especially the reasons why we’re bombing the country.tc pixel

8/6/2026 Focus Partners Advisor Solutions LLC4,680$295K0.0%N/A0.001%
8/6/2026 State of Wyoming3,150$198K0.0%N/A0.001%
8/3/2026 Bryn Mawr Trust Advisors LLC132,848$8.36M0.4%N/A0.028%
8/3/2026 Hardy Reed LLC5,005$315K0.0%N/A0.001%
7/10/2026 Investors Research Corp7,349$463K0.1%-4.8%0.002%
7/10/2026 Cardinal Capital Management Inc.449,452$28.26M0.7%-5.2%0.094%
7/9/2026 Allied Private Wealth LLC500$33K0.0%N/A0.000%
7/8/2026 Thurston Springer Miller Herd & Titak Inc.479$30K0.0%+1,014.0%0.000%
7/8/2026 PensionDanmark Pensionsforsikringsaktieselskab61,430$3.86M0.0%+4.5%0.013%
7/8/2026 Assenagon Asset Management S.A.19,303$1.21M0.0%+22.0%0.004%


NTR Institutional Ownership - Frequently Asked Questions

During the previous two years, 693 institutional investors and hedge funds held shares of Nutrien. The most heavily invested institutionals were Vanguard Group Inc. ($1.39B), Arrowstreet Capital Limited Partnership ($892.83M), First Eagle Investment Management LLC ($821.33M), Wellington Management Group LLP ($654.08M), Bank of Montreal Can ($619.25M), Deutsche Bank AG ($588.72M), and Dodge & Cox ($586.87M).Learn more on Nutrien's institutional investors.

63.10% of Nutrien's stock is owned by institutional investors. Learn more on NTR's institutional investor holdings.

Of the 605 institutional investors that purchased Nutrien's stock in the last 24 months, the following investors and hedge funds have bought the highest volume of shares: Wellington Management Group LLP ($24.80M), Norges Bank ($18.89M), Deutsche Bank AG ($10.73M), Arrowstreet Capital Limited Partnership ($9.52M), Silchester International Investors LLP ($7.65M), Canada Pension Plan Investment Board ($6.99M), and The Manufacturers Life Insurance Company ($6.97M).

Institutional investors have bought a total of 104,642,880 shares in the last 24 months. This purchase volume represents approximately $6.57B in transactions.

Of the 227 institutional investors that sold Nutrien's stock in the last 24 months, the following investors and hedge funds have sold the highest volume of shares: ARGA Investment Management LP ($6.55M), Silchester International Investors LLP ($4.34M), Arrowstreet Capital Limited Partnership ($2.39M), Altshuler Shaham Ltd ($2.11M), OMERS ADMINISTRATION Corp ($1.20M), Clal Insurance Enterprises Holdings Ltd ($910K), and Man Group plc ($732.41K).

Institutional investors have sold a total of 27,290,265 shares in the last 24 months. This volume of shares sold represents approximately $1.83B in transactions.



Institutional ownership data for NYSE:NTR is compiled from quarterly 13F filings submitted to the U.S. Securities and Exchange Commission (SEC), with the most recent received on 9/2/2026. New 13F filings are added each quarter as they're published.
From Our Partners